Avondale, Alabama
Current Conditions -  °F | °C
As of 11:53 AM on Tuesday 21 Oct 2014 (Local Time) from KBHM Reporting Station
Clear Clear  
Wind Chill: 73°   Ceiling: Unl
Heat Index: 73°   Visibility: 10mi
Dew Point: 55°   Wind: 3mph
Humidity: 53%   Direction: 300°WNW
Pressure: 30.08"   Gusts: NA
Location:  33.5222°N, 86.7699°W
Report Text: KBHM 211653Z 30003KT 10SM CLR 23/13 A3008 RMK AO2 SLP180 T02280128
Loading
Personal Weather Stations






























Interactive Weather Map New forecast layout! Learn more

10-Day Weather Forecast

Advertisements
Track Severe Weather on mobile